createdAt,value
2023-04-25T00:00:16.181Z,4.90
2023-04-25T00:02:43.593Z,5.07
2023-04-25T00:05:11.297Z,4.95
2023-04-25T00:07:38.157Z,4.75
2023-04-25T00:10:06.059Z,5.40
2023-04-25T00:12:34.494Z,5.72
2023-04-25T00:15:01.451Z,5.72
2023-04-25T00:17:28.326Z,6.32
2023-04-25T00:19:55.245Z,6.38
2023-04-25T00:22:22.084Z,5.45
2023-04-25T00:24:48.901Z,5.13
2023-04-25T00:27:15.916Z,5.30
2023-04-25T00:29:42.779Z,5.15
2023-04-25T00:32:09.557Z,5.13
2023-04-25T00:34:36.936Z,5.60
2023-04-25T00:37:03.790Z,5.60
2023-04-25T00:39:30.673Z,5.32
2023-04-25T00:41:58.767Z,5.00
2023-04-25T00:44:26.058Z,5.05
2023-04-25T00:46:55.265Z,4.55
2023-04-25T00:49:22.163Z,4.72
2023-04-25T00:51:49.444Z,5.15
2023-04-25T00:54:17.007Z,4.97
2023-04-25T00:56:46.164Z,4.43
2023-04-25T00:59:13.828Z,4.20
2023-04-25T01:01:41.141Z,5.03
2023-04-25T01:04:08.500Z,4.20
2023-04-25T01:06:35.388Z,4.78
2023-04-25T01:09:03.727Z,4.43
2023-04-25T01:11:30.741Z,4.15
2023-04-25T01:13:57.607Z,5.03
2023-04-25T01:16:27.737Z,4.07
2023-04-25T01:18:55.947Z,4.65
2023-04-25T01:21:22.812Z,3.95
2023-04-25T01:23:49.872Z,4.47
2023-04-25T01:26:17.089Z,4.85
2023-04-25T01:28:44.190Z,4.70
2023-04-25T01:31:11.636Z,4.70
2023-04-25T01:33:38.531Z,4.63
2023-04-25T01:36:06.162Z,3.95
2023-04-25T01:38:33.783Z,5.10
2023-04-25T01:41:00.745Z,4.43
2023-04-25T01:43:27.605Z,4.22
2023-04-25T01:45:54.618Z,4.38
2023-04-25T01:48:21.471Z,4.40
2023-04-25T01:50:48.565Z,3.95
2023-04-25T01:53:15.759Z,4.18
2023-04-25T01:55:42.570Z,4.38
2023-04-25T01:58:13.901Z,4.15
2023-04-25T02:00:41.818Z,4.60
2023-04-25T02:03:09.718Z,4.47
2023-04-25T02:05:39.019Z,4.13
2023-04-25T02:08:08.168Z,4.30
2023-04-25T02:10:35.604Z,4.07
2023-04-25T02:13:02.821Z,4.10
2023-04-25T02:15:29.571Z,4.35
2023-04-25T02:17:56.928Z,4.25
2023-04-25T02:20:25.476Z,3.83
2023-04-25T02:22:52.897Z,4.00
2023-04-25T02:25:20.999Z,3.83
2023-04-25T02:27:48.978Z,3.67
2023-04-25T02:30:16.417Z,4.20
2023-04-25T02:32:43.403Z,4.28
2023-04-25T02:35:11.081Z,4.10
2023-04-25T02:37:39.563Z,4.18
2023-04-25T02:40:07.914Z,4.10
2023-04-25T02:42:35.277Z,4.43
2023-04-25T02:45:03.174Z,3.97
2023-04-25T02:47:30.506Z,4.50
2023-04-25T02:49:57.453Z,4.40
2023-04-25T02:52:24.240Z,4.40
2023-04-25T02:54:51.018Z,4.53
2023-04-25T02:57:17.803Z,3.90
2023-04-25T02:59:44.590Z,4.40
2023-04-25T03:02:11.665Z,4.28
2023-04-25T03:04:38.615Z,4.25
2023-04-25T03:07:07.032Z,4.55
2023-04-25T03:09:33.846Z,4.70
2023-04-25T03:12:01.334Z,4.20
2023-04-25T03:14:28.119Z,4.70
2023-04-25T03:16:55.003Z,4.47
2023-04-25T03:19:21.886Z,4.35
2023-04-25T03:21:48.812Z,4.53
2023-04-25T03:24:16.122Z,4.32
2023-04-25T03:26:42.911Z,4.30
2023-04-25T03:29:10.203Z,4.85
2023-04-25T03:31:37.008Z,4.50
2023-04-25T03:34:03.840Z,4.13
2023-04-25T03:36:30.706Z,4.30
2023-04-25T03:38:57.530Z,4.28
2023-04-25T03:41:24.347Z,4.50
2023-04-25T03:43:51.335Z,4.10
2023-04-25T03:46:18.397Z,4.45
2023-04-25T03:48:45.196Z,4.47
2023-04-25T03:51:11.992Z,4.50
2023-04-25T03:53:38.786Z,4.18
2023-04-25T03:56:06.074Z,4.50
2023-04-25T03:58:32.900Z,4.50
2023-04-25T04:00:59.746Z,5.13
2023-04-25T04:03:26.703Z,4.82
2023-04-25T04:05:54.239Z,4.78
2023-04-25T04:08:21.136Z,4.45
2023-04-25T04:10:48.188Z,4.13
2023-04-25T04:13:14.945Z,5.30
2023-04-25T04:15:41.923Z,4.53
2023-04-25T04:18:08.705Z,4.57
2023-04-25T04:20:35.576Z,4.28
2023-04-25T04:23:02.556Z,4.38
2023-04-25T04:25:29.522Z,4.20
2023-04-25T04:27:56.457Z,5.00
2023-04-25T04:30:25.193Z,4.38
2023-04-25T04:32:53.149Z,4.15
2023-04-25T04:35:20.159Z,4.28
2023-04-25T04:37:46.958Z,5.40
2023-04-25T04:40:16.309Z,6.40
2023-04-25T04:42:44.599Z,5.05
2023-04-25T04:45:11.846Z,5.05
2023-04-25T04:47:40.429Z,5.25
2023-04-25T04:50:11.986Z,4.55
2023-04-25T04:52:39.843Z,5.85
2023-04-25T04:55:07.548Z,5.05
2023-04-25T04:57:35.850Z,5.68
2023-04-25T05:00:05.796Z,5.10
2023-04-25T05:02:32.666Z,5.18
2023-04-25T05:04:59.605Z,4.82
2023-04-25T05:07:26.457Z,4.50
2023-04-25T05:09:53.245Z,4.78
2023-04-25T05:12:20.030Z,4.78
2023-04-25T05:14:46.780Z,5.43
2023-04-25T05:17:13.606Z,5.00
2023-04-25T05:19:40.713Z,4.90
2023-04-25T05:22:07.536Z,4.90
2023-04-25T05:24:34.312Z,4.57
2023-04-25T05:27:01.106Z,4.47
2023-04-25T05:29:27.928Z,4.80
2023-04-25T05:31:54.799Z,4.65
2023-04-25T05:34:21.617Z,4.88
2023-04-25T05:36:49.410Z,5.35
2023-04-25T05:39:20.337Z,4.90
2023-04-25T05:41:47.191Z,4.88
2023-04-25T05:44:13.965Z,4.13
2023-04-25T05:46:40.891Z,5.00
2023-04-25T05:49:07.971Z,4.35
2023-04-25T05:51:34.836Z,4.45
2023-04-25T05:54:01.582Z,4.35
2023-04-25T05:56:28.540Z,5.13
2023-04-25T05:58:56.032Z,4.90
2023-04-25T06:01:24.182Z,4.65
2023-04-25T06:03:53.028Z,6.40
2023-04-25T06:06:20.618Z,7.55
2023-04-25T06:08:47.535Z,6.80
2023-04-25T06:11:14.361Z,6.85
2023-04-25T06:13:41.158Z,7.82
2023-04-25T06:16:08.530Z,5.40
2023-04-25T06:18:35.745Z,4.85
2023-04-25T06:21:02.551Z,5.15
2023-04-25T06:23:29.425Z,5.03
2023-04-25T06:25:56.196Z,4.63
2023-04-25T06:28:24.213Z,4.78
2023-04-25T06:30:51.813Z,4.25
2023-04-25T06:33:18.606Z,5.03
2023-04-25T06:35:45.450Z,4.80
2023-04-25T06:38:12.251Z,4.82
2023-04-25T06:40:39.128Z,5.28
2023-04-25T06:43:05.933Z,4.53
2023-04-25T06:45:32.851Z,4.60
2023-04-25T06:47:59.726Z,4.13
2023-04-25T06:50:26.826Z,4.10
2023-04-25T06:52:53.722Z,3.55
2023-04-25T06:55:20.763Z,3.90
2023-04-25T06:57:47.548Z,3.88
2023-04-25T07:00:15.227Z,4.13
2023-04-25T07:02:44.295Z,4.00
2023-04-25T07:05:11.262Z,3.42
2023-04-25T07:07:38.031Z,3.75
2023-04-25T07:10:06.315Z,3.58
2023-04-25T07:12:33.475Z,3.72
2023-04-25T07:15:00.411Z,3.63
2023-04-25T07:17:27.201Z,3.28
2023-04-25T07:19:54.024Z,3.55
2023-04-25T07:22:20.886Z,3.47
2023-04-25T07:24:49.654Z,3.47
2023-04-25T07:27:16.564Z,3.33
2023-04-25T07:29:43.597Z,3.20
2023-04-25T07:32:13.270Z,3.15
2023-04-25T07:34:40.471Z,3.40
2023-04-25T07:37:07.517Z,3.22
2023-04-25T07:39:34.318Z,3.10
2023-04-25T07:42:01.398Z,3.13
2023-04-25T07:44:28.365Z,2.40
2023-04-25T07:46:55.330Z,2.60
2023-04-25T07:49:22.144Z,2.47
2023-04-25T07:51:49.042Z,2.55
2023-04-25T07:54:19.082Z,2.63
2023-04-25T07:56:52.590Z,2.80
2023-04-25T07:59:20.845Z,2.63
2023-04-25T08:01:47.683Z,2.90
2023-04-25T08:04:14.993Z,2.95
2023-04-25T08:06:43.121Z,2.72
2023-04-25T08:09:11.009Z,3.05
2023-04-25T08:11:38.391Z,2.80
2023-04-25T08:14:06.308Z,3.35
2023-04-25T08:16:33.234Z,2.97
2023-04-25T08:19:01.511Z,3.00
2023-04-25T08:21:28.673Z,3.90
2023-04-25T08:23:55.669Z,3.17
2023-04-25T08:26:22.826Z,3.72
2023-04-25T08:28:51.383Z,3.47
2023-04-25T08:31:18.886Z,3.60
2023-04-25T08:33:46.082Z,3.28
2023-04-25T08:36:14.624Z,4.38
2023-04-25T08:38:44.407Z,4.03
2023-04-25T08:41:13.359Z,4.32
2023-04-25T08:43:44.044Z,3.85
2023-04-25T08:46:13.152Z,3.92
2023-04-25T08:48:43.450Z,4.45
2023-04-25T08:51:17.031Z,3.33
2023-04-25T08:53:46.595Z,3.60
2023-04-25T08:56:18.603Z,3.33
2023-04-25T08:58:46.937Z,4.30
2023-04-25T09:01:13.900Z,4.80
2023-04-25T09:03:41.715Z,4.65
2023-04-25T09:06:10.444Z,4.05
2023-04-25T09:08:39.473Z,3.97
2023-04-25T09:11:07.225Z,3.13
2023-04-25T09:13:34.466Z,3.33
2023-04-25T09:16:01.363Z,3.63
2023-04-25T09:18:33.144Z,4.20
2023-04-25T09:21:26.513Z,3.67
2023-04-25T09:23:53.758Z,4.53
2023-04-25T09:26:22.522Z,3.60
2023-04-25T09:28:49.306Z,3.63
2023-04-25T09:31:25.771Z,4.63
2023-04-25T09:34:01.928Z,3.20
2023-04-25T09:36:31.004Z,3.20
2023-04-25T09:39:00.780Z,2.63
2023-04-25T09:41:27.557Z,2.65
2023-04-25T09:44:00.191Z,3.25
2023-04-25T09:49:08.360Z,2.58
2023-04-25T09:51:35.320Z,1.80
2023-04-25T09:54:02.149Z,1.70
2023-04-25T09:56:36.897Z,1.75
2023-04-25T09:59:04.673Z,2.00
2023-04-25T10:01:31.917Z,1.80
2023-04-25T10:03:59.967Z,1.75
2023-04-25T10:06:29.331Z,1.65
2023-04-25T10:08:57.106Z,1.30
2023-04-25T10:11:26.050Z,1.70
2023-04-25T10:13:53.694Z,1.50
2023-04-25T10:16:21.739Z,1.52
2023-04-25T10:18:49.430Z,1.50
2023-04-25T10:21:17.621Z,1.42
2023-04-25T10:23:44.973Z,1.80
2023-04-25T10:26:13.770Z,1.63
2023-04-25T10:29:01.902Z,1.48
2023-04-25T10:31:31.989Z,1.60
2023-04-25T10:34:00.599Z,1.60
2023-04-25T10:36:28.367Z,1.63
2023-04-25T10:38:55.403Z,1.70
2023-04-25T10:41:24.030Z,1.70
2023-04-25T10:44:01.930Z,1.70
2023-04-25T10:46:32.750Z,1.40
2023-04-25T10:49:02.538Z,1.50
2023-04-25T10:51:51.442Z,1.42
2023-04-25T10:54:23.441Z,1.55
2023-04-25T10:56:51.801Z,1.67
2023-04-25T10:59:20.289Z,1.60
2023-04-25T11:01:57.903Z,1.75
2023-04-25T11:04:34.847Z,1.92
2023-04-25T11:07:17.752Z,1.50
2023-04-25T11:09:46.798Z,2.05
2023-04-25T11:12:14.094Z,1.90
2023-04-25T11:17:12.944Z,1.45
2023-04-25T11:19:39.953Z,2.20
2023-04-25T11:22:07.706Z,1.83
2023-04-25T11:24:36.442Z,2.20
2023-04-25T11:27:04.935Z,2.20
2023-04-25T11:29:33.760Z,1.80
2023-04-25T11:32:02.012Z,1.80
2023-04-25T11:34:33.980Z,2.10
2023-04-25T11:37:03.260Z,2.22
2023-04-25T11:39:31.071Z,1.80
2023-04-25T11:41:58.203Z,2.38
2023-04-25T11:44:25.255Z,1.83
2023-04-25T11:46:52.036Z,1.83
2023-04-25T11:49:19.362Z,1.67
2023-04-25T11:51:49.960Z,2.20
2023-04-25T11:54:17.147Z,2.50
2023-04-25T11:56:47.273Z,2.25
2023-04-25T11:59:14.637Z,2.38
2023-04-25T12:01:50.791Z,2.40
2023-04-25T12:04:22.693Z,2.80
2023-04-25T12:06:56.014Z,2.20
2023-04-25T12:09:31.444Z,2.22
2023-04-25T12:12:00.556Z,2.20
2023-04-25T12:14:33.910Z,2.20
2023-04-25T12:17:04.830Z,2.40
2023-04-25T12:19:37.293Z,2.10
2023-04-25T12:22:05.186Z,2.50
2023-04-25T12:24:38.378Z,2.05
2023-04-25T12:27:09.251Z,2.00
2023-04-25T12:29:48.641Z,1.92
2023-04-25T12:32:17.028Z,1.80
2023-04-25T12:34:43.955Z,1.80
2023-04-25T12:37:11.382Z,1.90
2023-04-25T12:39:38.380Z,1.80
2023-04-25T12:42:07.777Z,1.60
2023-04-25T12:44:36.577Z,1.70
2023-04-25T12:47:04.274Z,2.05
2023-04-25T12:49:31.443Z,2.20
2023-04-25T12:51:58.836Z,2.05
2023-04-25T12:54:26.784Z,2.40
2023-04-25T12:56:53.798Z,2.10
2023-04-25T12:59:21.547Z,1.95
2023-04-25T13:01:49.534Z,1.90
2023-04-25T13:04:17.079Z,1.90
2023-04-25T13:06:44.331Z,1.77
2023-04-25T13:09:13.188Z,2.15
2023-04-25T13:11:41.440Z,2.00
2023-04-25T13:14:08.843Z,1.90
2023-04-25T13:16:36.107Z,2.08
2023-04-25T13:19:03.023Z,2.10
2023-04-25T13:21:34.548Z,2.17
2023-04-25T13:24:01.689Z,2.22
2023-04-25T13:26:28.535Z,2.38
2023-04-25T13:28:55.379Z,2.65
2023-04-25T13:31:22.359Z,2.22
2023-04-25T13:33:49.659Z,2.17
2023-04-25T13:36:16.944Z,1.70
2023-04-25T13:38:45.937Z,2.42
2023-04-25T13:41:18.578Z,1.77
2023-04-25T13:43:48.834Z,2.20
2023-04-25T13:46:35.504Z,2.15
2023-04-25T13:49:12.178Z,1.90
2023-04-25T13:51:41.507Z,1.77
2023-04-25T13:54:08.741Z,2.53
2023-04-25T13:56:35.975Z,2.10
2023-04-25T13:59:03.812Z,2.50
2023-04-25T14:01:32.196Z,2.78
2023-04-25T14:03:59.904Z,3.20
2023-04-25T14:06:26.885Z,2.60
2023-04-25T14:08:54.907Z,3.45
2023-04-25T14:11:22.361Z,3.10
2023-04-25T14:13:50.313Z,2.80
2023-04-25T14:16:18.253Z,2.80
2023-04-25T14:18:45.243Z,3.45
2023-04-25T14:21:12.142Z,3.25
2023-04-25T14:23:39.033Z,2.72
2023-04-25T14:26:06.360Z,2.90
2023-04-25T14:28:33.648Z,2.35
2023-04-25T14:31:01.593Z,2.08
2023-04-25T14:33:28.536Z,2.05
2023-04-25T14:35:56.062Z,2.08
2023-04-25T14:38:24.444Z,1.80
2023-04-25T14:40:52.335Z,2.00
2023-04-25T14:43:19.225Z,2.10
2023-04-25T14:45:46.475Z,1.80
2023-04-25T14:48:14.194Z,1.88
2023-04-25T14:50:41.099Z,2.00
2023-04-25T14:53:07.889Z,2.15
2023-04-25T14:55:34.909Z,2.00
2023-04-25T14:58:02.253Z,1.60
2023-04-25T15:00:29.205Z,2.05
2023-04-25T15:02:57.070Z,3.50
2023-04-25T15:05:24.401Z,3.47
2023-04-25T15:07:51.539Z,1.77
2023-04-25T15:10:19.631Z,1.25
2023-04-25T15:12:47.893Z,1.52
2023-04-25T15:15:22.754Z,1.23
2023-04-25T15:17:56.507Z,1.17
2023-04-25T15:20:26.223Z,13.45
2023-04-25T15:22:53.829Z,2.50
2023-04-25T15:25:21.184Z,2.30
2023-04-25T15:27:49.649Z,4.65
2023-04-25T15:30:18.837Z,1.58
2023-04-25T15:32:47.617Z,1.00
2023-04-25T15:35:18.632Z,1.20
2023-04-25T15:37:46.212Z,2.55
2023-04-25T15:40:16.418Z,5.60
2023-04-25T15:42:51.539Z,1.70
2023-04-25T15:45:21.527Z,1.33
2023-04-25T15:47:49.971Z,1.52
2023-04-25T15:50:17.167Z,1.10
2023-04-25T15:52:44.204Z,2.60
2023-04-25T15:55:12.860Z,1.30
2023-04-25T15:57:42.269Z,1.48
2023-04-25T16:00:15.234Z,1.90
2023-04-25T16:02:44.598Z,2.20
2023-04-25T16:05:13.097Z,1.10
2023-04-25T16:07:41.626Z,2.00
2023-04-25T16:10:11.046Z,2.10
2023-04-25T16:12:39.455Z,2.50
2023-04-25T16:15:08.262Z,2.80
2023-04-25T16:17:35.735Z,2.85
2023-04-25T16:20:06.491Z,2.40
2023-04-25T16:22:33.361Z,1.95
2023-04-25T16:25:00.932Z,1.88
2023-04-25T16:27:28.325Z,2.35
2023-04-25T16:29:55.240Z,1.50
2023-04-25T16:32:21.997Z,2.30
2023-04-25T16:34:49.217Z,2.92
2023-04-25T16:37:16.440Z,2.08
2023-04-25T16:39:43.779Z,2.20
2023-04-25T16:42:10.790Z,1.85
2023-04-25T16:44:37.642Z,1.67
2023-04-25T16:47:06.090Z,1.63
2023-04-25T16:49:34.069Z,1.30
2023-04-25T16:52:01.024Z,2.42
2023-04-25T16:54:28.487Z,1.88
2023-04-25T16:56:55.508Z,1.63
2023-04-25T16:59:22.321Z,1.90
2023-04-25T17:01:49.219Z,1.80
2023-04-25T17:04:16.264Z,1.80
2023-04-25T17:06:43.205Z,1.80
2023-04-25T17:09:10.421Z,1.88
2023-04-25T17:11:37.451Z,1.80
2023-04-25T17:14:04.538Z,1.80
2023-04-25T17:16:38.534Z,1.77
2023-04-25T17:19:06.392Z,2.47
2023-04-25T17:21:33.374Z,2.00
2023-04-25T17:24:00.534Z,2.20
2023-04-25T17:26:28.045Z,1.92
2023-04-25T17:28:55.219Z,2.08
2023-04-25T17:31:23.860Z,2.28
2023-04-25T17:33:51.096Z,1.88
2023-04-25T17:36:18.821Z,2.17
2023-04-25T17:38:45.829Z,2.40
2023-04-25T17:41:14.925Z,2.38
2023-04-25T17:43:42.088Z,2.20
2023-04-25T17:46:08.987Z,2.40
2023-04-25T17:48:36.159Z,2.58
2023-04-25T17:51:03.231Z,2.78
2023-04-25T17:53:30.079Z,2.20
2023-04-25T17:55:57.010Z,2.67
2023-04-25T17:58:23.902Z,3.00
2023-04-25T18:00:51.653Z,2.92
2023-04-25T18:03:18.564Z,3.72
2023-04-25T18:05:45.558Z,3.33
2023-04-25T18:08:12.566Z,4.10
2023-04-25T18:10:40.408Z,3.65
2023-04-25T18:13:09.019Z,2.28
2023-04-25T18:15:36.605Z,2.90
2023-04-25T18:18:09.646Z,3.50
2023-04-25T18:23:04.083Z,2.30
2023-04-25T18:25:30.908Z,2.05
2023-04-25T18:27:59.599Z,2.20
2023-04-25T18:30:26.857Z,2.10
2023-04-25T18:32:54.919Z,2.22
2023-04-25T18:35:22.698Z,2.03
2023-04-25T18:37:49.715Z,2.00
2023-04-25T18:40:16.778Z,2.10
2023-04-25T18:42:43.908Z,2.25
2023-04-25T18:45:11.864Z,2.70
2023-04-25T18:47:38.719Z,2.70
2023-04-25T18:50:07.133Z,2.33
2023-04-25T18:52:33.972Z,2.15
2023-04-25T18:55:01.046Z,2.30
2023-04-25T18:57:28.496Z,2.60
2023-04-25T18:59:56.179Z,3.00
2023-04-25T19:02:23.268Z,3.67
2023-04-25T19:04:50.912Z,3.40
2023-04-25T19:07:18.383Z,4.78
2023-04-25T19:09:45.720Z,3.67
2023-04-25T19:12:12.764Z,3.83
2023-04-25T19:14:39.715Z,2.83
2023-04-25T19:17:07.412Z,2.80
2023-04-25T19:19:34.287Z,7.55
2023-04-25T19:22:01.831Z,3.38
2023-04-25T19:24:28.686Z,4.13
2023-04-25T19:26:55.650Z,3.00
2023-04-25T19:29:22.844Z,2.30
2023-04-25T19:31:50.058Z,2.30
2023-04-25T19:34:17.394Z,2.45
2023-04-25T19:36:44.710Z,2.80
2023-04-25T19:39:11.754Z,2.70
2023-04-25T19:41:39.458Z,2.40
2023-04-25T19:44:08.711Z,2.72
2023-04-25T19:46:37.443Z,2.80
2023-04-25T19:49:08.563Z,2.17
2023-04-25T19:51:36.676Z,2.40
2023-04-25T19:54:04.259Z,2.22
2023-04-25T19:56:31.172Z,2.20
2023-04-25T19:58:58.458Z,2.08
2023-04-25T20:01:26.263Z,2.03
2023-04-25T20:03:53.590Z,2.25
2023-04-25T20:06:20.761Z,2.20
2023-04-25T20:08:47.984Z,2.03
2023-04-25T20:11:15.161Z,2.47
2023-04-25T20:13:42.191Z,2.70
2023-04-25T20:16:09.216Z,2.70
2023-04-25T20:18:36.097Z,2.47
2023-04-25T20:21:03.011Z,3.40
2023-04-25T20:23:29.835Z,2.97
2023-04-25T20:25:57.424Z,4.25
2023-04-25T20:28:24.369Z,3.47
2023-04-25T20:30:51.676Z,2.70
2023-04-25T20:33:18.885Z,2.90
2023-04-25T20:35:46.747Z,2.60
2023-04-25T20:38:13.895Z,2.40
2023-04-25T20:40:41.514Z,2.50
2023-04-25T20:43:11.315Z,2.10
2023-04-25T20:45:39.847Z,2.53
2023-04-25T20:48:06.795Z,2.88
2023-04-25T20:50:33.927Z,2.60
2023-04-25T20:53:00.757Z,2.42
2023-04-25T20:55:27.597Z,2.28
2023-04-25T20:57:54.564Z,2.35
2023-04-25T21:00:27.349Z,2.28
2023-04-25T21:02:54.632Z,2.35
2023-04-25T21:05:22.199Z,2.55
2023-04-25T21:07:49.964Z,2.78
2023-04-25T21:10:17.372Z,2.35
2023-04-25T21:12:49.349Z,3.05
2023-04-25T21:15:19.392Z,3.20
2023-04-25T21:17:51.182Z,3.55
2023-04-25T21:20:20.793Z,3.25
2023-04-25T21:22:51.148Z,2.88
2023-04-25T21:25:25.561Z,2.95
2023-04-25T21:27:55.644Z,2.97
2023-04-25T21:30:24.284Z,3.50
2023-04-25T21:32:52.164Z,3.33
2023-04-25T21:35:21.310Z,3.83
2023-04-25T21:37:48.424Z,4.40
2023-04-25T21:40:15.756Z,4.10
2023-04-25T21:42:44.508Z,3.38
2023-04-25T21:45:11.884Z,3.97
2023-04-25T21:47:39.087Z,3.65
2023-04-25T21:50:06.818Z,3.50
2023-04-25T21:52:34.032Z,3.42
2023-04-25T21:55:00.812Z,3.40
2023-04-25T21:57:27.649Z,3.40
2023-04-25T21:59:54.467Z,3.05
2023-04-25T22:02:21.575Z,3.25
2023-04-25T22:04:49.082Z,3.50
2023-04-25T22:07:16.394Z,3.65
2023-04-25T22:09:55.001Z,3.60
2023-04-25T22:12:23.365Z,3.17
2023-04-25T22:14:50.720Z,3.75
2023-04-25T22:17:18.721Z,2.85
2023-04-25T22:19:45.702Z,2.40
2023-04-25T22:22:12.612Z,2.90
2023-04-25T22:24:40.078Z,2.45
2023-04-25T22:27:06.980Z,2.42
2023-04-25T22:29:34.097Z,2.60
2023-04-25T22:32:01.649Z,2.63
2023-04-25T22:34:28.730Z,2.60
2023-04-25T22:36:56.418Z,3.22
2023-04-25T22:39:23.506Z,2.97
2023-04-25T22:41:50.344Z,2.40
2023-04-25T22:44:17.744Z,2.72
2023-04-25T22:46:44.607Z,2.53
2023-04-25T22:49:11.904Z,2.80
2023-04-25T22:51:38.739Z,2.83
2023-04-25T22:54:05.910Z,2.92
2023-04-25T22:56:33.274Z,3.20
2023-04-25T22:59:00.113Z,3.20
2023-04-25T23:26:10.766Z,2.70
2023-04-25T23:28:41.449Z,2.88
2023-04-25T23:31:10.470Z,2.63
2023-04-25T23:33:37.818Z,3.53
2023-04-25T23:36:05.309Z,2.95
2023-04-25T23:38:32.769Z,2.65
2023-04-25T23:40:59.637Z,2.50
2023-04-25T23:43:26.438Z,2.40
2023-04-25T23:45:54.204Z,2.72
2023-04-25T23:48:21.131Z,2.83
2023-04-25T23:50:48.039Z,2.92
2023-04-25T23:53:15.223Z,3.45
2023-04-25T23:55:42.340Z,2.50
2023-04-25T23:58:09.293Z,2.65
